Time;durP1;ratioP1;P1;durP2;ratioP2;P2;SDS_P1;SDS_P2;PMS_P1;PMS_P2;Temp;Humidity;BMP_temperature;BMP_pressure;BME280_temperature;BME280_humidity;BME280_pressure;Samples;Min_cycle;Max_cycle;Signal;HPM_P1;HPM_P2
2021/03/18 00:01:43;;;;;;;31.60;19.50;;;;;;;1.92;73.49;99142.88;123555;1102;64895;-80
2021/03/18 00:04:12;;;;;;;31.45;20.30;;;;;;;1.90;73.81;99139.45;124063;1102;64907;-80
2021/03/18 00:06:39;;;;;;;36.40;21.00;;;;;;;1.89;73.97;99141.19;123851;1102;64860;-80
2021/03/18 00:09:11;;;;;;;30.57;19.60;;;;;;;1.88;73.74;99147.37;123817;1102;64987;-80
2021/03/18 00:11:38;;;;;;;28.17;18.27;;;;;;;1.89;73.22;99149.08;123756;1102;64971;-80
2021/03/18 00:14:06;;;;;;;30.13;19.47;;;;;;;1.87;73.38;99145.66;123769;1102;64898;-80
2021/03/18 00:16:32;;;;;;;29.67;19.97;;;;;;;1.87;73.40;99147.40;123788;1102;64888;-79
2021/03/18 00:18:58;;;;;;;27.97;18.83;;;;;;;1.84;73.89;99140.47;123756;1102;64984;-80
2021/03/18 00:21:25;;;;;;;30.95;18.67;;;;;;;1.81;73.40;99145.81;123353;1102;65252;-80
2021/03/18 00:23:51;;;;;;;25.97;17.67;;;;;;;1.81;73.79;99142.33;123785;1102;64984;-80
2021/03/18 00:26:27;;;;;;;25.00;17.23;;;;;;;1.81;73.49;99139.70;123425;1102;64886;-80
2021/03/18 00:28:54;;;;;;;26.50;17.77;;;;;;;1.79;73.48;99142.39;123751;1102;64927;-79
2021/03/18 00:31:22;;;;;;;30.37;18.03;;;;;;;1.77;73.67;99146.83;123764;1102;64889;-80
2021/03/18 00:33:49;;;;;;;29.73;17.37;;;;;;;1.74;74.21;99137.27;123406;1102;65084;-80
2021/03/18 00:36:17;;;;;;;26.40;18.00;;;;;;;1.72;73.47;99138.22;123758;1102;65099;-79
2021/03/18 00:38:44;;;;;;;29.83;19.43;;;;;;;1.71;73.84;99145.24;123817;1102;65011;-80
2021/03/18 00:41:11;;;;;;;28.53;18.97;;;;;;;1.71;73.63;99144.35;123750;1102;64888;-80
2021/03/18 00:43:40;;;;;;;25.50;17.13;;;;;;;1.70;73.67;99137.39;123844;1102;64889;-80
2021/03/18 00:46:07;;;;;;;23.93;15.43;;;;;;;1.69;74.11;99139.16;123481;1102;65367;-79
2021/03/18 00:48:34;;;;;;;24.40;15.77;;;;;;;1.67;74.45;99132.23;123538;1102;64992;-80
2021/03/18 00:51:08;;;;;;;22.80;14.60;;;;;;;1.66;73.78;99134.00;123844;1102;64882;-79
2021/03/18 00:53:39;;;;;;;24.50;15.17;;;;;;;1.65;74.56;99137.52;123834;1102;64911;-80
2021/03/18 00:56:08;;;;;;;23.63;16.20;;;;;;;1.63;74.56;99127.95;123493;1102;65351;-80
2021/03/18 00:58:35;;;;;;;25.17;15.85;;;;;;;1.61;74.06;99125.39;123845;1102;64860;-79
2021/03/18 01:01:04;;;;;;;24.17;17.03;;;;;;;1.60;74.57;99136.78;123752;1102;64911;-80
2021/03/18 01:03:40;;;;;;;24.03;15.93;;;;;;;1.61;74.61;99127.16;123486;1103;64883;-80
2021/03/18 01:06:27;;;;;;;24.17;14.73;;;;;;;1.58;74.19;99122.86;123857;1102;64869;-80
2021/03/18 01:08:55;;;;;;;24.50;16.25;;;;;;;1.57;74.60;99118.48;123828;1102;64905;-80
2021/03/18 01:11:25;;;;;;;22.13;15.67;;;;;;;1.56;74.37;99111.52;123816;1102;65040;-79
2021/03/18 01:13:56;;;;;;;30.27;18.35;;;;;;;1.54;74.27;99116.81;123863;1102;64934;-80
2021/03/18 01:16:26;;;;;;;23.73;17.60;;;;;;;1.53;74.42;99115.09;123819;1102;64911;-80
2021/03/18 01:18:56;;;;;;;19.60;14.00;;;;;;;1.54;74.66;99118.58;123794;1102;64912;-82
2021/03/18 01:21:26;;;;;;;24.00;14.77;;;;;;;1.53;75.09;99116.87;123912;1102;64853;-80
2021/03/18 01:23:52;;;;;;;22.40;15.25;;;;;;;1.50;74.41;99116.93;123517;1105;64902;-80
2021/03/18 01:26:19;;;;;;;21.05;16.25;;;;;;;1.47;75.21;99117.87;123832;1102;65187;-80
2021/03/18 01:28:45;;;;;;;23.10;15.10;;;;;;;1.46;74.81;99120.56;123468;1102;64920;-80
2021/03/18 01:31:12;;;;;;;20.53;16.83;;;;;;;1.46;74.59;99120.56;123519;1102;65008;-79
2021/03/18 01:33:40;;;;;;;21.67;15.20;;;;;;;1.45;74.67;99122.34;123867;1102;64860;-80
2021/03/18 01:36:11;;;;;;;22.10;15.40;;;;;;;1.44;74.93;99119.73;123841;1102;65039;-80
2021/03/18 01:38:38;;;;;;;24.50;15.85;;;;;;;1.41;74.80;99123.31;123883;1102;64937;-79
2021/03/18 01:41:07;;;;;;;21.13;15.00;;;;;;;1.41;75.01;99123.31;123461;1102;64926;-80
2021/03/18 01:43:34;;;;;;;24.87;16.03;;;;;;;1.42;75.29;99126.79;123819;1101;64891;-80
2021/03/18 01:46:01;;;;;;;24.10;15.20;;;;;;;1.42;75.49;99129.41;123786;1102;65358;-80
2021/03/18 01:48:28;;;;;;;22.70;16.35;;;;;;;1.39;75.10;99135.61;123790;1101;65330;-80
2021/03/18 01:50:55;;;;;;;23.43;16.87;;;;;;;1.38;75.51;99133.91;123798;1102;64896;-80
2021/03/18 01:53:24;;;;;;;26.43;17.20;;;;;;;1.39;75.19;99132.98;123784;1102;64962;-79
2021/03/18 01:55:53;;;;;;;25.60;17.17;;;;;;;1.39;75.31;99132.13;123811;1102;64987;-80
2021/03/18 01:58:20;;;;;;;23.13;17.03;;;;;;;1.38;75.12;99133.05;123847;1102;64937;-81
2021/03/18 02:00:51;;;;;;;24.33;16.43;;;;;;;1.37;75.33;99129.56;123504;1102;64856;-81
2021/03/18 02:03:18;;;;;;;23.90;16.00;;;;;;;1.36;75.90;99126.97;123857;1102;64911;-79
2021/03/18 02:05:46;;;;;;;24.43;17.37;;;;;;;1.34;75.87;99132.25;123776;1102;65042;-79
2021/03/18 02:08:14;;;;;;;25.47;17.37;;;;;;;1.33;75.43;99127.91;123782;1101;64885;-80
2021/03/18 02:10:41;;;;;;;26.40;16.60;;;;;;;1.31;75.65;99127.94;123789;1101;64863;-78
2021/03/18 02:13:10;;;;;;;22.17;15.47;;;;;;;1.30;76.00;99130.63;123803;1102;65085;-80
2021/03/18 02:15:43;;;;;;;24.07;17.87;;;;;;;1.29;76.36;99136.77;123556;1102;64903;-80
2021/03/18 02:18:18;;;;;;;24.87;17.60;;;;;;;1.26;75.78;99132.48;123899;1102;64912;-80
2021/03/18 02:21:09;;;;;;;25.40;16.67;;;;;;;1.27;76.16;99130.72;123870;1102;64861;-80
2021/03/18 02:24:00;;;;;;;25.80;17.90;;;;;;;1.26;75.98;99136.84;123461;1102;64971;-80
2021/03/18 02:26:54;;;;;;;23.03;17.13;;;;;;;1.24;76.40;99138.68;123848;1102;65167;-80
2021/03/18 02:29:59;;;;;;;22.47;16.53;;;;;;;1.22;76.88;99145.73;123864;1102;64936;-79
2021/03/18 02:32:40;;;;;;;24.10;15.30;;;;;;;1.22;76.88;99143.95;123758;1102;64911;-78
2021/03/18 02:35:28;;;;;;;24.37;17.60;;;;;;;1.23;76.85;99142.19;123844;1102;65354;-80
2021/03/18 02:38:15;;;;;;;24.40;17.80;;;;;;;1.25;76.63;99149.13;123853;1102;64937;-79
2021/03/18 02:40:45;;;;;;;24.35;18.70;;;;;;;1.27;76.49;99149.09;123792;1101;65090;-80
2021/03/18 02:43:15;;;;;;;24.90;17.80;;;;;;;1.27;76.88;99146.47;123916;1102;64937;-80
2021/03/18 02:45:44;;;;;;;;;;;;;;;1.28;77.03;99148.17;123517;1102;64906;-80
2021/03/18 02:48:17;;;;;;;20.77;15.93;;;;;;;1.29;76.52;99149.89;123854;1102;64886;-80
2021/03/18 02:50:44;;;;;;;21.60;16.10;;;;;;;1.29;77.04;99147.27;123838;1102;64886;-79
2021/03/18 02:53:15;;;;;;;24.37;17.93;;;;;;;1.30;76.75;99155.11;123824;1101;64940;-80
2021/03/18 02:55:43;;;;;;;23.47;18.93;;;;;;;1.30;77.38;99156.88;123815;1102;64952;-80
2021/03/18 02:58:15;;;;;;;26.70;18.80;;;;;;;1.27;76.65;99155.20;123883;1102;64891;-80
2021/03/18 03:00:41;;;;;;;24.80;19.20;;;;;;;1.27;76.64;99154.34;123872;1102;64926;-80
2021/03/18 03:03:09;;;;;;;25.23;17.07;;;;;;;1.26;76.89;99147.35;123893;1102;64912;-80
2021/03/18 03:05:36;;;;;;;25.25;20.00;;;;;;;1.24;77.32;99150.03;123817;1102;65052;-80
2021/03/18 03:08:05;;;;;;;26.73;19.77;;;;;;;1.24;77.23;99151.80;123808;1102;64934;-80
2021/03/18 03:10:34;;;;;;;27.83;19.93;;;;;;;1.24;77.05;99150.03;123813;1102;64911;-80
2021/03/18 03:13:01;;;;;;;30.20;21.30;;;;;;;1.23;77.32;99150.92;123879;1102;64908;-80
2021/03/18 03:15:31;;;;;;;25.40;19.43;;;;;;;1.23;77.67;99145.67;123817;1102;64994;-80
2021/03/18 03:18:02;;;;;;;27.17;20.47;;;;;;;1.23;78.01;99148.30;123862;1101;64885;-79
2021/03/18 03:20:29;;;;;;;26.53;20.83;;;;;;;1.22;77.95;99148.35;123811;1102;65029;-79
2021/03/18 03:22:59;;;;;;;31.03;22.57;;;;;;;1.21;77.64;99155.37;123796;1102;64917;-80
2021/03/18 03:25:26;;;;;;;34.10;23.83;;;;;;;1.22;77.41;99154.45;123860;1102;64910;-80
2021/03/18 03:27:53;;;;;;;31.67;22.80;;;;;;;1.23;77.59;99156.17;123867;1102;65224;-79
2021/03/18 03:30:21;;;;;;;28.30;22.80;;;;;;;1.22;78.05;99159.70;123853;1102;64911;-80
2021/03/18 03:32:47;;;;;;;27.70;21.63;;;;;;;1.22;78.27;99161.48;123812;1102;64963;-80
2021/03/18 03:35:17;;;;;;;33.53;24.87;;;;;;;1.21;77.69;99155.37;123453;1102;64921;-81
2021/03/18 03:37:45;;;;;;;34.37;23.43;;;;;;;1.21;78.02;99154.48;123527;1102;64974;-80
2021/03/18 03:40:14;;;;;;;33.47;24.60;;;;;;;1.18;78.23;99152.80;123811;1102;64962;-80
2021/03/18 03:42:41;;;;;;;34.13;23.83;;;;;;;1.20;78.05;99155.40;123458;1102;64994;-80
2021/03/18 03:45:09;;;;;;;33.27;25.27;;;;;;;1.21;77.76;99162.36;123462;1102;64937;-82
2021/03/18 03:47:40;;;;;;;30.60;23.00;;;;;;;1.21;77.86;99152.75;123824;1101;64934;-80
2021/03/18 03:50:13;;;;;;;33.67;24.33;;;;;;;1.22;78.36;99161.48;123499;1102;64921;-80
2021/03/18 03:52:51;;;;;;;35.70;24.85;;;;;;;1.24;77.96;99164.94;123498;1102;64947;-79
2021/03/18 03:55:37;;;;;;;33.13;24.33;;;;;;;1.25;78.10;99166.64;123822;1102;64892;-79
2021/03/18 03:58:20;;;;;;;30.70;23.65;;;;;;;1.23;78.48;99161.42;123809;1101;64952;-80
2021/03/18 04:00:48;;;;;;;33.97;23.57;;;;;;;1.23;78.17;99168.44;123806;1102;64901;-80
2021/03/18 04:03:15;;;;;;;32.47;24.70;;;;;;;1.23;77.86;99164.05;123882;1102;64898;-80
2021/03/18 04:05:45;;;;;;;33.27;26.30;;;;;;;1.22;78.24;99170.21;123845;1102;64937;-80
2021/03/18 04:08:15;;;;;;;36.07;26.27;;;;;;;1.22;77.68;99167.59;123826;1102;64889;-80
2021/03/18 04:10:45;;;;;;;34.03;26.85;;;;;;;1.24;77.59;99160.54;123861;1102;64924;-80
2021/03/18 04:13:15;;;;;;;29.13;22.97;;;;;;;1.24;77.71;99172.80;123837;1102;64893;-80
2021/03/18 04:15:44;;;;;;;32.57;24.37;;;;;;;1.21;77.75;99165.88;123891;1102;64987;-80
2021/03/18 04:18:11;;;;;;;34.85;25.35;;;;;;;1.22;78.06;99170.21;123938;1102;64907;-81
2021/03/18 04:20:40;;;;;;;37.17;27.23;;;;;;;1.22;78.25;99171.98;123822;1102;64972;-80
2021/03/18 04:23:09;;;;;;;36.47;28.77;;;;;;;1.23;77.47;99176.31;123863;1102;64962;-79
2021/03/18 04:25:37;;;;;;;38.05;26.85;;;;;;;1.24;78.13;99164.94;123548;1102;65049;-81
2021/03/18 04:28:09;;;;;;;30.00;23.70;;;;;;;1.22;77.61;99169.36;123448;1102;64995;-80
2021/03/18 04:30:38;;;;;;;29.37;22.00;;;;;;;1.21;77.96;99168.50;123838;1102;64882;-80
2021/03/18 04:33:06;;;;;;;28.77;22.52;;;;;;;1.19;77.88;99174.69;123837;1102;64882;-80
2021/03/18 04:35:32;;;;;;;27.67;21.13;;;;;;;1.18;77.60;99168.55;123502;1102;64977;-80
2021/03/18 04:38:01;;;;;;;31.27;23.37;;;;;;;1.17;77.73;99171.23;123456;1101;64968;-80
2021/03/18 04:40:27;;;;;;;29.80;24.20;;;;;;;1.11;77.74;99172.26;123516;1102;64934;-79
2021/03/18 04:42:56;;;;;;;28.47;23.20;;;;;;;1.09;77.86;99172.28;123454;1105;65079;-80
2021/03/18 04:45:24;;;;;;;27.90;21.50;;;;;;;1.09;78.36;99167.04;123828;1102;64867;-79
2021/03/18 04:47:52;;;;;;;31.67;24.27;;;;;;;1.10;77.96;99173.14;123879;1102;64981;-79
2021/03/18 04:50:23;;;;;;;31.00;24.77;;;;;;;1.09;77.97;99176.68;123832;1102;64902;-81
2021/03/18 04:52:51;;;;;;;31.00;23.20;;;;;;;1.08;78.34;99174.97;123859;1102;64952;-81
2021/03/18 04:55:20;;;;;;;27.97;22.43;;;;;;;1.07;78.20;99176.70;123522;1102;64873;-80
2021/03/18 04:57:58;;;;;;;25.63;21.70;;;;;;;1.08;78.42;99167.95;123471;1102;64988;-80
2021/03/18 05:00:27;;;;;;;27.87;22.47;;;;;;;1.07;77.95;99176.70;123468;1102;64998;-80
2021/03/18 05:02:56;;;;;;;33.33;25.53;;;;;;;1.07;78.00;99178.48;123929;1102;64920;-80
2021/03/18 05:05:23;;;;;;;31.33;25.53;;;;;;;1.01;78.98;99179.50;123819;1102;64892;-81
2021/03/18 05:07:52;;;;;;;29.33;24.53;;;;;;;0.96;78.45;99178.75;123864;1102;64863;-80
2021/03/18 05:10:23;;;;;;;27.17;22.97;;;;;;;0.93;79.29;99180.59;123871;1102;64815;-81
2021/03/18 05:12:51;;;;;;;31.20;24.87;;;;;;;0.89;78.97;99182.41;123481;1102;64873;-79
2021/03/18 05:15:19;;;;;;;31.23;25.73;;;;;;;0.85;79.35;99181.64;123525;1102;65018;-80
2021/03/18 05:17:45;;;;;;;29.03;23.70;;;;;;;0.84;79.35;99190.42;123799;1102;64911;-80
2021/03/18 05:20:14;;;;;;;35.23;24.93;;;;;;;0.81;78.93;99182.59;123793;1102;64911;-80
2021/03/18 05:22:44;;;;;;;29.50;22.80;;;;;;;0.79;79.98;99186.16;123479;1102;64992;-80
2021/03/18 05:25:12;;;;;;;;;;;;;;;0.74;79.55;99194.16;123895;1102;64912;-79
2021/03/18 05:27:39;;;;;;;27.07;20.40;;;;;;;0.72;79.98;99195.95;123840;1102;65343;-80
2021/03/18 05:30:13;;;;;;;29.83;22.47;;;;;;;0.73;79.42;99194.19;123487;1102;64893;-80
2021/03/18 05:32:42;;;;;;;30.27;21.67;;;;;;;0.73;79.64;99195.05;123872;1102;64911;-80
2021/03/18 05:35:10;;;;;;;24.80;19.63;;;;;;;0.74;79.53;99195.90;123872;1102;64914;-79
2021/03/18 05:37:37;;;;;;;19.07;13.53;;;;;;;0.72;78.98;99202.97;123837;1102;64882;-79
2021/03/18 05:40:06;;;;;;;20.20;15.20;;;;;;;0.72;79.30;99198.58;123832;1101;64886;-80
2021/03/18 05:42:34;;;;;;;18.77;16.20;;;;;;;0.72;78.68;99209.07;123882;1102;64914;-81
2021/03/18 05:45:03;;;;;;;23.37;15.37;;;;;;;0.74;79.01;99204.66;123850;1102;64896;-80
2021/03/18 05:47:31;;;;;;;24.87;16.30;;;;;;;0.76;79.25;99207.22;123882;1101;64895;-80
2021/03/18 05:49:58;;;;;;;20.47;15.83;;;;;;;0.78;79.21;99210.68;123823;1102;65001;-80
2021/03/18 05:52:27;;;;;;;21.70;15.10;;;;;;;0.82;79.10;99212.34;123442;1102;64965;-79
2021/03/18 05:54:56;;;;;;;21.33;13.77;;;;;;;0.86;78.44;99214.84;123470;1102;64896;-80
2021/03/18 05:57:24;;;;;;;19.77;14.93;;;;;;;0.94;79.12;99209.41;123871;1102;64991;-79
2021/03/18 05:59:51;;;;;;;21.45;14.65;;;;;;;1.00;78.72;99217.15;123856;1102;64828;-79
2021/03/18 06:02:17;;;;;;;23.67;16.70;;;;;;;1.00;79.05;99214.52;123811;1102;64889;-80
2021/03/18 06:04:44;;;;;;;24.10;18.70;;;;;;;1.02;78.49;99206.59;123901;1102;64918;-80
2021/03/18 06:07:12;;;;;;;23.93;18.20;;;;;;;1.06;78.29;99216.98;123893;1102;65013;-80
2021/03/18 06:09:38;;;;;;;24.93;18.53;;;;;;;1.09;78.94;99222.16;123452;1102;64889;-80
2021/03/18 06:12:05;;;;;;;24.70;19.75;;;;;;;1.13;78.74;99224.70;123864;1102;64975;-80
2021/03/18 06:14:32;;;;;;;27.27;20.57;;;;;;;1.16;78.36;99222.87;123514;1102;64966;-81
2021/03/18 06:16:58;;;;;;;28.57;20.90;;;;;;;1.19;78.37;99227.19;123859;1102;64943;-81
2021/03/18 06:19:26;;;;;;;25.37;20.07;;;;;;;1.18;78.07;99223.67;123506;1102;65000;-81
2021/03/18 06:21:53;;;;;;;24.77;17.87;;;;;;;1.24;77.79;99226.17;123819;1102;64911;-81
2021/03/18 06:24:21;;;;;;;22.83;18.57;;;;;;;1.27;77.57;99230.48;123822;1102;65010;-79
2021/03/18 06:26:48;;;;;;;26.23;17.90;;;;;;;1.31;77.72;99235.59;123472;1102;64947;-80
2021/03/18 06:29:34;;;;;;;24.83;17.30;;;;;;;1.36;76.93;99238.11;123868;1102;65349;-80
2021/03/18 06:32:13;;;;;;;25.13;18.33;;;;;;;1.42;76.99;99242.33;123831;1102;64886;-81
2021/03/18 06:34:41;;;;;;;22.57;15.07;;;;;;;1.49;76.72;99239.51;123862;1102;64835;-80
2021/03/18 06:37:31;;;;;;;23.43;16.17;;;;;;;1.52;76.43;99242.05;123935;1102;64930;-80
2021/03/18 06:39:59;;;;;;;23.75;17.70;;;;;;;1.57;75.70;99243.70;123884;1102;64988;-80
2021/03/18 06:42:26;;;;;;;23.73;16.20;;;;;;;1.56;75.10;99242.85;123514;1102;64886;-80
2021/03/18 06:45:12;;;;;;;23.67;15.90;;;;;;;1.55;75.35;99230.60;123528;1102;65302;-79
2021/03/18 06:47:54;;;;;;;21.15;14.10;;;;;;;1.63;74.44;99241.77;123768;1101;64857;-79
2021/03/18 06:50:38;;;;;;;23.30;15.15;;;;;;;1.67;74.09;99239.94;123734;1102;64918;-79
2021/03/18 06:53:19;;;;;;;16.37;13.67;;;;;;;1.70;73.37;99238.08;123415;1102;64888;-79
2021/03/18 06:55:45;;;;;;;18.10;13.23;;;;;;;1.78;73.74;99242.27;123750;1102;64885;-80
2021/03/18 06:58:12;;;;;;;19.10;13.70;;;;;;;1.84;72.65;99236.84;123433;1102;64914;-80
2021/03/18 07:00:39;;;;;;;17.70;13.67;;;;;;;1.87;72.05;99242.89;123780;1102;64832;-80
2021/03/18 07:03:09;;;;;;;21.70;13.63;;;;;;;1.92;72.18;99248.00;123482;1105;65066;-79
2021/03/18 07:05:40;;;;;;;22.32;14.10;;;;;;;1.98;72.00;99248.70;123816;1102;64911;-80
2021/03/18 07:08:22;;;;;;;23.40;14.90;;;;;;;1.98;71.28;99243.45;123449;1102;64942;-80
2021/03/18 07:10:48;;;;;;;21.03;14.33;;;;;;;2.00;71.85;99242.52;123798;1102;64902;-80
2021/03/18 07:13:26;;;;;;;20.37;15.43;;;;;;;2.01;71.06;99249.53;123400;1102;64889;-80
2021/03/18 07:15:55;;;;;;;22.37;15.67;;;;;;;2.03;72.01;99247.69;123764;1102;64937;-80
2021/03/18 07:18:23;;;;;;;18.33;13.67;;;;;;;2.00;70.51;99245.16;123927;1102;64828;-81
2021/03/18 07:21:03;;;;;;;21.80;14.27;;;;;;;1.94;70.77;99249.67;123817;1102;65263;-81
2021/03/18 07:23:42;;;;;;;17.77;11.80;;;;;;;1.91;71.21;99246.28;123522;1102;64991;-81
2021/03/18 07:26:19;;;;;;;17.47;12.87;;;;;;;1.83;70.49;99253.52;123877;1102;64896;-80
2021/03/18 07:29:11;;;;;;;20.53;12.77;;;;;;;1.69;70.33;99254.76;123506;1102;65051;-81
2021/03/18 07:31:37;;;;;;;15.77;11.50;;;;;;;1.59;71.11;99261.16;123826;1102;64917;-79
2021/03/18 07:34:06;;;;;;;19.57;12.97;;;;;;;1.52;71.24;99257.81;123413;1102;64947;-80
2021/03/18 07:36:32;;;;;;;21.60;14.90;;;;;;;1.42;71.47;99258.09;123812;1102;64905;-81
2021/03/18 07:38:59;;;;;;;21.93;12.47;;;;;;;1.44;71.54;99261.55;123851;1102;64920;-80
2021/03/18 07:41:28;;;;;;;20.93;14.90;;;;;;;1.44;71.16;99254.52;123808;1102;65013;-80
2021/03/18 07:43:55;;;;;;;19.50;13.00;;;;;;;1.41;71.55;99259.86;123859;1102;65007;-80
2021/03/18 07:46:22;;;;;;;19.97;14.40;;;;;;;1.47;71.05;99262.31;123900;1102;64933;-81
2021/03/18 07:48:54;;;;;;;18.37;13.20;;;;;;;1.54;71.50;99256.02;123877;1102;64908;-80
2021/03/18 07:51:20;;;;;;;17.40;11.37;;;;;;;1.70;70.53;99263.49;123524;1102;64937;-80
2021/03/18 07:53:54;;;;;;;19.17;11.13;;;;;;;1.75;70.80;99253.72;123490;1102;65355;-81
2021/03/18 07:56:22;;;;;;;16.47;10.83;;;;;;;1.81;69.74;99258.80;123810;1102;65346;-82
2021/03/18 07:58:50;;;;;;;16.30;9.40;;;;;;;1.90;69.10;99248.05;123843;1102;64828;-80
2021/03/18 08:01:32;;;;;;;17.10;9.93;;;;;;;1.97;69.56;99243.47;123827;1102;64931;-80
2021/03/18 08:04:01;;;;;;;12.25;8.15;;;;;;;2.12;69.67;99247.45;123798;1102;64886;-81
2021/03/18 08:06:39;;;;;;;10.47;7.47;;;;;;;2.27;68.65;99244.38;123855;1102;64879;-81
2021/03/18 08:09:41;;;;;;;10.07;6.90;;;;;;;2.32;67.89;99241.63;123904;1102;65014;-80
2021/03/18 08:12:12;;;;;;;9.63;6.40;;;;;;;2.43;67.59;99236.05;123354;1105;65154;-80
2021/03/18 08:14:38;;;;;;;9.33;6.07;;;;;;;2.55;67.10;99235.66;123789;1102;64928;-81
2021/03/18 08:17:28;;;;;;;11.00;6.27;;;;;;;2.67;66.56;99240.55;123890;1102;64934;-80
2021/03/18 08:19:54;;;;;;;;;;;;;;;2.71;65.89;99230.78;123858;1102;64831;-80
2021/03/18 08:22:28;;;;;;;9.00;6.30;;;;;;;2.82;65.20;99231.33;123543;1102;65054;-80
2021/03/18 08:25:22;;;;;;;7.80;5.53;;;;;;;3.00;65.38;99222.84;123858;1102;64917;-80
2021/03/18 08:27:49;;;;;;;10.67;6.50;;;;;;;3.15;64.51;99225.87;123848;1102;64911;-80
2021/03/18 08:30:22;;;;;;;9.27;6.40;;;;;;;3.30;65.28;99231.48;123857;1101;65343;-80
2021/03/18 08:32:48;;;;;;;9.03;5.93;;;;;;;3.62;63.32;99226.03;123498;1102;65017;-80
2021/03/18 08:35:27;;;;;;;7.90;5.15;;;;;;;3.80;62.96;99219.25;123889;1102;64895;-81
2021/03/18 08:38:12;;;;;;;8.63;6.00;;;;;;;3.93;63.57;99216.11;123958;1102;65367;-80
2021/03/18 08:40:38;;;;;;;7.67;6.00;;;;;;;3.90;62.47;99220.65;123896;1102;64841;-80
2021/03/18 08:43:07;;;;;;;8.60;6.25;;;;;;;3.95;62.40;99226.62;123503;1102;64866;-80
2021/03/18 08:45:36;;;;;;;8.00;5.90;;;;;;;4.09;61.89;99219.05;123806;1102;65094;-81
2021/03/18 08:48:16;;;;;;;5.50;4.87;;;;;;;4.08;62.34;99219.09;124007;1102;64997;-80
2021/03/18 08:50:43;;;;;;;8.30;5.83;;;;;;;4.23;60.85;99212.39;123878;1102;65309;-79
2021/03/18 08:53:31;;;;;;;7.60;5.00;;;;;;;4.32;60.73;99218.20;123780;1102;64891;-82
2021/03/18 08:55:58;;;;;;;6.13;3.60;;;;;;;4.39;59.54;99205.61;123884;1102;65297;-81
2021/03/18 08:58:24;;;;;;;6.57;4.20;;;;;;;4.46;59.97;99206.25;123462;1102;65336;-80
2021/03/18 09:00:51;;;;;;;6.00;3.83;;;;;;;4.54;60.27;99209.45;123859;1102;65291;-81
2021/03/18 09:03:20;;;;;;;5.23;4.30;;;;;;;4.59;58.77;99215.41;123479;1102;64977;-81
2021/03/18 09:05:55;;;;;;;8.93;5.57;;;;;;;4.54;58.29;99210.30;123537;1102;64888;-81
2021/03/18 09:08:27;;;;;;;7.80;4.70;;;;;;;4.71;57.53;99208.77;123887;1102;64940;-80
2021/03/18 09:10:54;;;;;;;9.43;5.70;;;;;;;4.91;58.69;99205.34;123853;1102;65158;-80
2021/03/18 09:13:23;;;;;;;9.20;4.90;;;;;;;4.91;58.98;99206.20;123855;1102;64895;-83
2021/03/18 09:15:57;;;;;;;7.27;4.87;;;;;;;5.09;57.66;99201.11;123770;1102;64914;-83
2021/03/18 09:18:25;;;;;;;9.50;5.00;;;;;;;5.11;57.37;99199.23;123795;1102;64909;-83
2021/03/18 09:20:58;;;;;;;8.67;5.27;;;;;;;4.97;57.37;99200.66;123766;1102;64993;-82
2021/03/18 09:23:28;;;;;;;9.77;6.33;;;;;;;4.91;57.32;99189.50;123836;1102;65374;-83
2021/03/18 09:25:59;;;;;;;9.78;5.40;;;;;;;4.78;56.35;99197.05;123899;1102;64937;-83
2021/03/18 09:28:32;;;;;;;8.13;5.03;;;;;;;4.60;55.50;99204.77;123844;1102;64908;-83
2021/03/18 09:30:59;;;;;;;6.30;3.80;;;;;;;4.51;56.74;99197.23;123875;1102;66472;-83
2021/03/18 09:33:41;;;;;;;7.63;4.13;;;;;;;4.51;56.44;99204.30;123834;1102;64921;-83
2021/03/18 09:36:14;;;;;;;6.77;4.23;;;;;;;4.53;56.53;99199.79;123841;1101;64937;-83
2021/03/18 09:38:41;;;;;;;6.77;4.00;;;;;;;4.75;55.35;99197.19;123750;1102;65100;-83
2021/03/18 09:41:25;;;;;;;9.20;4.67;;;;;;;5.00;54.66;99197.03;123484;1102;64929;-83
2021/03/18 09:44:33;;;;;;;7.53;4.20;;;;;;;5.41;55.30;99184.73;123852;1102;64786;-83
2021/03/18 09:47:02;;;;;;;6.97;4.33;;;;;;;5.70;53.77;99185.27;123558;1102;64914;-83
2021/03/18 09:49:38;;;;;;;6.75;3.87;;;;;;;5.81;54.76;99180.35;123484;1105;64968;-83
2021/03/18 09:52:18;;;;;;;6.30;4.20;;;;;;;5.85;53.73;99171.37;123825;1102;64885;-87
2021/03/18 09:54:45;;;;;;;7.73;4.37;;;;;;;5.78;54.07;99179.64;123808;1102;64896;-85
2021/03/18 09:57:12;;;;;;;6.93;4.33;;;;;;;5.87;54.06;99173.92;123455;1102;64965;-83
2021/03/18 09:59:39;;;;;;;4.13;2.77;;;;;;;5.88;51.95;99173.02;123841;1102;65346;-84
2021/03/18 10:02:06;;;;;;;3.50;2.90;;;;;;;5.71;51.98;99187.86;124186;1101;64933;-85
2021/03/18 10:04:51;;;;;;;4.03;2.37;;;;;;;5.54;49.82;99192.16;123840;1102;64982;-84
2021/03/18 10:07:18;;;;;;;5.23;3.20;;;;;;;5.34;51.06;99187.70;123794;1102;64889;-84
2021/03/18 10:09:46;;;;;;;7.90;4.45;;;;;;;5.16;52.59;99189.34;123824;1102;64921;-86
2021/03/18 10:12:15;;;;;;;8.10;4.75;;;;;;;4.93;53.11;99183.23;123863;1102;64917;-85
2021/03/18 10:14:54;;;;;;;11.23;5.40;;;;;;;4.89;53.53;99181.63;123834;1102;64841;-84
2021/03/18 10:17:26;;;;;;;11.23;6.57;;;;;;;4.82;54.15;99177.55;123833;1102;64924;-84
2021/03/18 10:20:12;;;;;;;10.63;7.20;;;;;;;4.82;54.54;99182.83;123849;1102;65362;-84
2021/03/18 10:22:47;;;;;;;9.07;5.33;;;;;;;4.94;54.47;99174.38;123829;1101;65355;-86
2021/03/18 10:25:23;;;;;;;8.60;4.93;;;;;;;4.88;52.91;99179.92;123831;1102;64953;-84
2021/03/18 10:28:00;;;;;;;6.87;4.00;;;;;;;4.96;52.08;99166.41;123803;1102;64914;-84
2021/03/18 10:30:27;;;;;;;4.30;2.13;;;;;;;5.11;50.20;99160.49;123801;1102;64914;-86
2021/03/18 10:33:03;;;;;;;6.03;2.53;;;;;;;5.34;50.54;99158.64;123811;1102;64885;-84
2021/03/18 10:35:31;;;;;;;6.17;3.27;;;;;;;5.67;48.75;99159.81;123810;1102;64828;-86
2021/03/18 10:37:57;;;;;;;5.57;2.43;;;;;;;5.79;45.65;99157.55;123866;1102;64780;-84
2021/03/18 10:40:26;;;;;;;4.00;2.30;;;;;;;5.92;47.42;99159.59;123437;1103;65020;-84
2021/03/18 10:42:57;;;;;;;4.23;1.97;;;;;;;6.10;46.23;99155.25;123891;1102;64940;-84
2021/03/18 10:45:33;;;;;;;3.75;2.40;;;;;;;6.02;45.17;99167.98;123863;1102;65343;-84
2021/03/18 10:48:08;;;;;;;3.27;2.40;;;;;;;5.87;44.62;99151.01;123876;1102;64905;-85
2021/03/18 10:50:37;;;;;;;3.03;2.33;;;;;;;5.71;45.62;99152.59;123467;1102;64915;-84
2021/03/18 10:53:07;;;;;;;3.83;2.77;;;;;;;5.43;46.73;99152.97;123906;1102;64921;-84
2021/03/18 10:55:41;;;;;;;4.57;2.80;;;;;;;5.28;46.59;99146.55;123816;1102;65013;-85
2021/03/18 10:58:10;;;;;;;4.33;3.10;;;;;;;5.17;46.56;99152.30;123847;1102;64913;-84
2021/03/18 11:00:41;;;;;;;5.43;2.80;;;;;;;5.13;47.63;99144.56;123953;1102;64912;-83
2021/03/18 11:03:15;;;;;;;3.20;2.20;;;;;;;5.06;46.96;99150.11;123794;1101;64888;-84
2021/03/18 11:05:49;;;;;;;3.40;2.70;;;;;;;5.09;47.37;99145.63;123565;1102;65043;-84
2021/03/18 11:08:25;;;;;;;4.97;1.97;;;;;;;5.26;45.22;99137.83;123471;1102;64908;-83
2021/03/18 11:10:53;;;;;;;4.33;2.73;;;;;;;5.52;45.99;99139.34;123792;1102;64889;-85
2021/03/18 11:13:22;;;;;;;4.10;2.93;;;;;;;5.84;45.13;99132.60;123540;1102;64959;-85
2021/03/18 11:16:02;;;;;;;5.13;2.90;;;;;;;5.96;45.47;99133.03;123568;1102;64892;-85
2021/03/18 11:18:30;;;;;;;7.00;3.83;;;;;;;5.93;45.47;99120.77;123853;1102;64998;-85
2021/03/18 11:20:58;;;;;;;7.33;3.30;;;;;;;5.88;46.70;99115.69;123488;1102;64995;-85
2021/03/18 11:23:36;;;;;;;11.10;4.23;;;;;;;5.52;46.62;99127.91;123480;1102;65389;-83
2021/03/18 11:26:06;;;;;;;23.97;5.17;;;;;;;5.07;47.86;99135.11;123853;1102;64898;-85
2021/03/18 11:28:33;;;;;;;8.75;4.37;;;;;;;4.82;50.57;99141.44;123831;1102;64882;-84
2021/03/18 11:31:11;;;;;;;7.87;4.77;;;;;;;4.52;53.01;99145.30;123787;1102;65029;-84
2021/03/18 11:33:38;;;;;;;8.17;5.20;;;;;;;4.23;53.38;99165.77;123797;1102;65033;-84
2021/03/18 11:36:06;;;;;;;22.07;13.20;;;;;;;3.92;54.69;99145.85;123780;1102;65357;-85
2021/03/18 11:38:33;;;;;;;7.55;4.50;;;;;;;3.78;56.68;99144.63;123822;1102;64892;-86
2021/03/18 11:41:01;;;;;;;11.03;7.37;;;;;;;3.67;56.63;99142.39;123436;1102;64982;-85